createdAt,value
2022-07-27T00:00:40.476Z,19.70
2022-07-27T00:05:44.594Z,19.80
2022-07-27T00:10:50.532Z,19.70
2022-07-27T00:15:55.030Z,19.60
2022-07-27T00:20:59.040Z,19.60
2022-07-27T00:26:04.435Z,19.60
2022-07-27T00:31:08.976Z,19.60
2022-07-27T00:36:14.112Z,19.50
2022-07-27T00:41:19.656Z,19.30
2022-07-27T00:46:24.337Z,19.10
2022-07-27T00:51:28.563Z,18.90
2022-07-27T00:56:34.281Z,18.80
2022-07-27T01:01:38.388Z,18.70
2022-07-27T01:06:42.435Z,18.50
2022-07-27T01:11:49.575Z,18.40
2022-07-27T01:16:53.551Z,18.30
2022-07-27T01:21:58.968Z,18.40
2022-07-27T01:27:04.480Z,18.40
2022-07-27T01:32:09.152Z,18.60
2022-07-27T01:37:14.565Z,18.70
2022-07-27T01:42:18.800Z,18.90
2022-07-27T01:47:23.815Z,18.90
2022-07-27T01:52:29.234Z,18.90
2022-07-27T01:57:33.267Z,18.90
2022-07-27T02:02:37.484Z,18.90
2022-07-27T02:07:43.192Z,18.80
2022-07-27T02:12:47.402Z,18.80
2022-07-27T02:17:52.265Z,18.80
2022-07-27T02:22:57.786Z,18.80
2022-07-27T02:28:01.850Z,18.80
2022-07-27T02:33:06.405Z,18.90
2022-07-27T02:38:11.823Z,18.80
2022-07-27T02:43:15.921Z,18.80
2022-07-27T02:48:20.065Z,18.90
2022-07-27T02:53:25.520Z,18.80
2022-07-27T02:58:29.651Z,18.70
2022-07-27T03:03:37.106Z,18.70
2022-07-27T03:08:43.221Z,18.70
2022-07-27T03:13:47.314Z,18.80
2022-07-27T03:18:51.425Z,18.80
2022-07-27T03:23:56.902Z,18.80
2022-07-27T03:29:01.078Z,18.90
2022-07-27T03:34:05.327Z,18.90
2022-07-27T03:39:13.404Z,18.90
2022-07-27T03:44:17.552Z,18.90
2022-07-27T03:49:21.666Z,18.70
2022-07-27T03:54:27.314Z,18.60
2022-07-27T03:59:31.358Z,18.60
2022-07-27T04:04:35.470Z,18.60
2022-07-27T04:09:42.306Z,18.60
2022-07-27T04:14:49.537Z,18.50
2022-07-27T04:19:53.612Z,18.60
2022-07-27T04:24:59.084Z,18.50
2022-07-27T04:30:08.296Z,18.60
2022-07-27T04:35:13.599Z,18.60
2022-07-27T04:40:19.073Z,18.60
2022-07-27T04:45:23.512Z,18.70
2022-07-27T04:50:27.543Z,18.90
2022-07-27T04:55:36.634Z,19.00
2022-07-27T05:00:41.232Z,19.10
2022-07-27T05:05:49.954Z,19.10
2022-07-27T05:10:56.023Z,19.30
2022-07-27T05:16:00.209Z,19.30
2022-07-27T05:21:04.507Z,19.50
2022-07-27T05:26:10.042Z,19.50
2022-07-27T05:31:14.013Z,19.60
2022-07-27T05:36:18.210Z,19.80
2022-07-27T05:41:26.020Z,20.00
2022-07-27T05:46:32.841Z,20.20
2022-07-27T05:51:38.153Z,20.40
2022-07-27T05:56:43.487Z,20.40
2022-07-27T06:01:47.676Z,20.40
2022-07-27T06:07:12.427Z,20.50
2022-07-27T06:12:18.153Z,20.40
2022-07-27T06:17:22.452Z,20.50
2022-07-27T06:22:26.518Z,20.40
2022-07-27T06:27:36.067Z,20.20
2022-07-27T06:32:41.958Z,20.30
2022-07-27T06:37:52.667Z,20.70
2022-07-27T06:42:58.274Z,20.80
2022-07-27T06:48:02.297Z,21.30
2022-07-27T06:53:06.360Z,22.00
2022-07-27T06:58:12.941Z,22.60
2022-07-27T07:03:16.983Z,23.20
2022-07-27T07:08:22.702Z,23.80
2022-07-27T07:13:28.563Z,24.10
2022-07-27T07:18:32.754Z,24.70
2022-07-27T07:23:36.896Z,25.00
2022-07-27T07:28:42.657Z,25.00
2022-07-27T07:33:46.754Z,25.40
2022-07-27T07:38:50.941Z,25.30
2022-07-27T07:43:56.548Z,25.60
2022-07-27T07:49:00.966Z,25.40
2022-07-27T07:54:06.077Z,25.40
2022-07-27T07:59:11.893Z,26.10
2022-07-27T08:04:16.195Z,26.30
2022-07-27T08:09:21.787Z,26.70
2022-07-27T08:14:27.444Z,27.20
2022-07-27T08:19:35.382Z,27.10
2022-07-27T08:24:42.557Z,27.00
2022-07-27T08:29:48.356Z,28.10
2022-07-27T08:34:56.976Z,29.10
2022-07-27T08:45:26.564Z,30.70
2022-07-27T08:50:31.068Z,31.10
2022-07-27T08:55:37.294Z,31.20
2022-07-27T09:00:48.137Z,31.20
2022-07-27T09:05:54.229Z,31.30
2022-07-27T09:10:59.571Z,31.60
2022-07-27T09:16:23.506Z,31.30
2022-07-27T09:21:28.205Z,31.70
2022-07-27T09:26:33.686Z,31.70
2022-07-27T09:31:45.481Z,32.80
2022-07-27T09:36:54.031Z,33.40
2022-07-27T09:42:01.276Z,33.10
2022-07-27T09:47:26.583Z,33.60
2022-07-27T09:52:32.245Z,34.80
2022-07-27T09:57:54.767Z,34.70
2022-07-27T10:03:01.622Z,34.70
2022-07-27T10:08:21.710Z,35.20
2022-07-27T10:13:26.479Z,36.70
2022-07-27T10:18:43.928Z,37.00
2022-07-27T10:24:01.817Z,37.90
2022-07-27T10:29:07.954Z,37.10
2022-07-27T10:34:13.609Z,37.20
2022-07-27T10:39:44.226Z,36.90
2022-07-27T10:44:59.815Z,37.40
2022-07-27T10:50:38.477Z,38.00
2022-07-27T10:55:52.053Z,39.40
2022-07-27T11:01:00.088Z,39.70
2022-07-27T11:06:31.403Z,39.90
2022-07-27T11:11:34.674Z,40.50
2022-07-27T11:16:52.596Z,40.50
2022-07-27T11:22:04.570Z,40.40
2022-07-27T11:27:17.039Z,41.10
2022-07-27T11:32:23.851Z,41.10
2022-07-27T11:37:28.995Z,40.80
2022-07-27T11:42:39.286Z,42.90
2022-07-27T11:47:43.407Z,43.40
2022-07-27T11:53:01.818Z,41.40
2022-07-27T11:58:05.960Z,43.00
2022-07-27T12:03:20.457Z,44.70
2022-07-27T12:08:28.045Z,44.40
2022-07-27T12:13:33.821Z,43.20
2022-07-27T12:18:44.000Z,43.30
2022-07-27T12:23:54.870Z,42.80
2022-07-27T12:29:10.268Z,44.10
2022-07-27T12:34:15.805Z,45.10
2022-07-27T12:39:32.042Z,44.10
2022-07-27T12:44:37.100Z,44.80
2022-07-27T12:49:46.581Z,44.10
2022-07-27T12:54:51.744Z,45.30
2022-07-27T12:59:56.138Z,47.20
2022-07-27T13:04:59.881Z,44.70
2022-07-27T13:10:06.968Z,41.40
2022-07-27T13:15:11.438Z,40.50
2022-07-27T13:20:15.895Z,42.50
2022-07-27T13:25:21.217Z,45.50
2022-07-27T13:30:25.535Z,44.30
2022-07-27T13:35:45.735Z,44.60
2022-07-27T13:40:52.541Z,43.00
2022-07-27T13:45:56.298Z,45.60
2022-07-27T13:50:59.985Z,47.30
2022-07-27T13:56:07.397Z,47.70
2022-07-27T14:01:12.257Z,48.90
2022-07-27T14:06:16.383Z,48.50
2022-07-27T14:11:21.500Z,47.90
2022-07-27T14:16:25.631Z,47.10
2022-07-27T14:21:29.561Z,46.90
2022-07-27T14:26:34.735Z,43.90
2022-07-27T14:31:38.648Z,43.00
2022-07-27T14:36:42.585Z,40.50
2022-07-27T14:41:47.810Z,39.40
2022-07-27T14:46:51.621Z,39.10
2022-07-27T14:51:55.479Z,40.40
2022-07-27T14:57:00.914Z,42.80
2022-07-27T15:02:07.660Z,39.20
2022-07-27T15:07:11.682Z,40.40
2022-07-27T15:12:16.903Z,42.30
2022-07-27T15:17:20.782Z,42.90
2022-07-27T15:22:25.424Z,43.60
2022-07-27T15:27:30.430Z,43.70
2022-07-27T15:32:34.453Z,43.10
2022-07-27T15:37:38.279Z,40.60
2022-07-27T15:42:43.400Z,42.80
2022-07-27T15:47:52.553Z,42.90
2022-07-27T15:52:56.481Z,42.70
2022-07-27T15:58:01.586Z,44.10
2022-07-27T16:03:08.088Z,44.60
2022-07-27T16:08:12.115Z,44.70
2022-07-27T16:13:17.646Z,44.70
2022-07-27T16:18:22.009Z,45.20
2022-07-27T16:23:26.137Z,43.40
2022-07-27T16:28:31.320Z,41.80
2022-07-27T16:33:35.361Z,41.50
2022-07-27T16:38:50.173Z,41.70
2022-07-27T16:43:58.044Z,41.60
2022-07-27T16:49:01.773Z,40.60
2022-07-27T16:54:06.341Z,40.30
2022-07-27T16:59:11.765Z,40.00
2022-07-27T17:04:15.735Z,40.70
2022-07-27T17:09:19.440Z,39.70
2022-07-27T17:14:24.555Z,39.20
2022-07-27T17:19:28.359Z,38.70
2022-07-27T17:24:38.246Z,37.50
2022-07-27T17:29:44.624Z,34.00
2022-07-27T17:34:48.725Z,31.20
2022-07-27T17:39:52.760Z,29.60
2022-07-27T17:44:58.128Z,28.60
2022-07-27T17:50:06.267Z,28.00
2022-07-27T17:55:10.993Z,27.60
2022-07-27T18:00:16.888Z,27.10
2022-07-27T18:05:20.619Z,26.80
2022-07-27T18:10:24.532Z,26.50
2022-07-27T18:15:47.209Z,26.20
2022-07-27T18:20:52.869Z,25.90
2022-07-27T18:25:56.752Z,25.70
2022-07-27T18:31:02.132Z,25.50
2022-07-27T18:36:06.686Z,25.40
2022-07-27T18:41:10.464Z,25.10
2022-07-27T18:46:17.349Z,24.80
2022-07-27T18:51:22.359Z,24.60
2022-07-27T18:56:26.071Z,24.50
2022-07-27T19:01:31.397Z,24.30
2022-07-27T19:06:35.556Z,24.00
2022-07-27T19:11:39.409Z,23.70
2022-07-27T19:16:44.595Z,23.50
2022-07-27T19:21:48.435Z,23.40
2022-07-27T19:26:52.193Z,23.20
2022-07-27T19:31:57.410Z,23.00
2022-07-27T19:37:01.794Z,22.90
2022-07-27T19:42:05.960Z,22.80
2022-07-27T19:47:11.234Z,22.70
2022-07-27T19:52:15.183Z,22.50
2022-07-27T19:57:19.029Z,22.40
2022-07-27T20:02:36.393Z,22.30
2022-07-27T20:07:40.195Z,22.10
2022-07-27T20:12:44.075Z,22.00
2022-07-27T20:17:49.207Z,21.80
2022-07-27T20:22:53.127Z,21.70
2022-07-27T20:27:57.495Z,21.40
2022-07-27T20:33:02.665Z,21.10
2022-07-27T20:38:06.645Z,20.90
2022-07-27T20:43:10.640Z,20.80
2022-07-27T20:48:15.706Z,20.70
2022-07-27T20:53:20.080Z,20.50
2022-07-27T20:58:24.022Z,20.30
2022-07-27T21:09:21.924Z,20.00
2022-07-27T21:14:26.234Z,20.00
2022-07-27T21:19:31.700Z,19.80
2022-07-27T21:24:36.926Z,19.70
2022-07-27T21:29:40.807Z,19.60
2022-07-27T21:34:46.052Z,19.50
2022-07-27T21:39:50.334Z,19.40
2022-07-27T21:44:57.764Z,19.30
2022-07-27T21:50:03.346Z,19.20
2022-07-27T21:55:07.721Z,19.20
2022-07-27T22:00:14.761Z,19.00
2022-07-27T22:05:22.832Z,19.00
2022-07-27T22:10:26.931Z,18.90
2022-07-27T22:15:30.890Z,18.90
2022-07-27T22:26:08.249Z,18.60
2022-07-27T22:31:21.848Z,18.60
2022-07-27T22:36:28.200Z,18.40
2022-07-27T22:41:32.298Z,18.30
2022-07-27T22:46:36.215Z,18.20
2022-07-27T22:51:49.428Z,18.10
2022-07-27T22:56:56.721Z,18.00
2022-07-27T23:02:00.773Z,17.90
2022-07-27T23:07:06.168Z,17.90
2022-07-27T23:12:10.139Z,17.90
2022-07-27T23:17:13.961Z,17.90
2022-07-27T23:22:19.417Z,17.80
2022-07-27T23:27:24.171Z,17.70
2022-07-27T23:32:27.906Z,17.60
2022-07-27T23:37:33.026Z,17.40
2022-07-27T23:42:36.893Z,17.30
2022-07-27T23:47:40.959Z,17.20
2022-07-27T23:52:46.251Z,17.10
2022-07-27T23:57:50.075Z,17.00
